createdAt,value
2023-03-18T00:01:18.591Z,2.80
2023-03-18T00:04:21.530Z,2.75
2023-03-18T00:07:23.477Z,2.72
2023-03-18T00:10:25.453Z,2.70
2023-03-18T00:13:28.202Z,3.15
2023-03-18T00:16:30.627Z,3.35
2023-03-18T00:19:32.737Z,2.90
2023-03-18T00:22:35.750Z,2.70
2023-03-18T00:25:38.399Z,2.60
2023-03-18T00:28:40.254Z,2.70
2023-03-18T00:31:42.243Z,2.28
2023-03-18T00:34:44.242Z,2.85
2023-03-18T00:37:46.198Z,2.65
2023-03-18T00:40:49.266Z,2.63
2023-03-18T00:43:51.353Z,2.47
2023-03-18T00:46:53.265Z,2.20
2023-03-18T00:49:55.175Z,2.63
2023-03-18T00:52:57.153Z,2.03
2023-03-18T00:55:59.059Z,2.05
2023-03-18T00:59:01.412Z,2.00
2023-03-18T01:02:03.846Z,2.03
2023-03-18T01:05:06.447Z,1.58
2023-03-18T01:08:08.312Z,1.30
2023-03-18T01:11:11.471Z,1.60
2023-03-18T01:14:13.326Z,1.80
2023-03-18T01:17:17.802Z,1.73
2023-03-18T01:20:20.927Z,1.40
2023-03-18T01:23:26.888Z,1.88
2023-03-18T01:26:28.915Z,1.85
2023-03-18T01:29:33.555Z,1.77
2023-03-18T01:32:37.094Z,1.92
2023-03-18T01:35:39.109Z,1.55
2023-03-18T01:38:44.036Z,1.80
2023-03-18T01:41:48.863Z,1.75
2023-03-18T01:45:20.306Z,1.88
2023-03-18T01:48:26.856Z,2.05
2023-03-18T01:51:38.152Z,1.88
2023-03-18T01:54:45.814Z,1.60
2023-03-18T01:57:49.675Z,1.70
2023-03-18T02:00:58.375Z,1.90
2023-03-18T02:04:04.596Z,1.60
2023-03-18T02:07:06.650Z,1.80
2023-03-18T02:10:32.701Z,1.63
2023-03-18T02:13:43.148Z,1.65
2023-03-18T02:17:12.717Z,1.45
2023-03-18T02:20:41.140Z,1.35
2023-03-18T02:24:31.042Z,1.80
2023-03-18T02:27:37.480Z,1.63
2023-03-18T02:30:44.227Z,1.42
2023-03-18T02:33:48.320Z,1.77
2023-03-18T02:36:50.250Z,1.50
2023-03-18T02:39:52.473Z,1.55
2023-03-18T02:42:56.989Z,1.60
2023-03-18T02:46:11.279Z,1.73
2023-03-18T02:49:14.399Z,2.03
2023-03-18T02:52:16.424Z,1.38
2023-03-18T02:55:18.479Z,2.72
2023-03-18T02:58:20.746Z,2.10
2023-03-18T03:01:27.148Z,1.88
2023-03-18T03:04:31.737Z,1.98
2023-03-18T03:07:33.734Z,2.03
2023-03-18T03:10:37.534Z,2.30
2023-03-18T03:13:42.013Z,2.00
2023-03-18T03:16:45.962Z,2.15
2023-03-18T03:19:47.824Z,2.40
2023-03-18T03:22:49.825Z,1.90
2023-03-18T03:25:52.393Z,2.70
2023-03-18T03:28:55.603Z,2.10
2023-03-18T03:31:57.473Z,1.85
2023-03-18T03:34:59.336Z,1.90
2023-03-18T03:38:01.242Z,1.80
2023-03-18T03:41:03.223Z,2.03
2023-03-18T03:44:05.406Z,1.95
2023-03-18T03:47:07.633Z,2.33
2023-03-18T03:50:11.361Z,2.30
2023-03-18T03:53:13.386Z,2.00
2023-03-18T03:56:15.327Z,2.30
2023-03-18T03:59:17.808Z,2.20
2023-03-18T04:05:54.811Z,1.80
2023-03-18T04:09:02.025Z,1.90
2023-03-18T04:12:04.688Z,5.05
2023-03-18T04:15:08.458Z,2.72
2023-03-18T04:18:11.436Z,2.05
2023-03-18T04:21:13.629Z,2.25
2023-03-18T04:24:23.037Z,2.20
2023-03-18T04:27:26.561Z,2.10
2023-03-18T04:30:28.829Z,1.92
2023-03-18T04:33:44.283Z,1.90
2023-03-18T04:36:46.644Z,1.92
2023-03-18T04:39:49.943Z,2.20
2023-03-18T04:45:59.056Z,2.38
2023-03-18T04:49:01.309Z,1.98
2023-03-18T04:52:03.737Z,1.88
2023-03-18T04:55:08.627Z,1.92
2023-03-18T04:58:13.439Z,2.00
2023-03-18T05:01:22.040Z,2.30
2023-03-18T05:04:24.323Z,2.20
2023-03-18T05:07:28.533Z,2.25
2023-03-18T05:10:37.083Z,2.75
2023-03-18T05:13:39.434Z,2.72
2023-03-18T05:16:42.762Z,2.70
2023-03-18T05:19:46.981Z,2.47
2023-03-18T05:22:53.893Z,3.13
2023-03-18T05:26:13.744Z,2.80
2023-03-18T05:29:19.146Z,2.95
2023-03-18T05:32:44.134Z,2.80
2023-03-18T05:35:47.084Z,2.70
2023-03-18T05:38:52.043Z,2.38
2023-03-18T05:41:54.290Z,2.40
2023-03-18T05:45:01.505Z,2.50
2023-03-18T05:48:04.048Z,3.22
2023-03-18T05:51:13.974Z,2.88
2023-03-18T05:54:16.454Z,2.97
2023-03-18T05:57:19.718Z,2.40
2023-03-18T06:00:23.090Z,2.63
2023-03-18T06:03:25.919Z,2.58
2023-03-18T06:06:27.921Z,2.83
2023-03-18T06:09:30.554Z,2.72
2023-03-18T06:12:32.694Z,2.20
2023-03-18T06:15:34.789Z,2.38
2023-03-18T06:18:37.521Z,2.60
2023-03-18T06:21:40.684Z,2.15
2023-03-18T06:24:44.526Z,1.83
2023-03-18T06:27:47.366Z,2.08
2023-03-18T06:30:51.251Z,2.03
2023-03-18T06:33:53.724Z,2.22
2023-03-18T06:36:57.502Z,2.33
2023-03-18T06:40:00.777Z,2.30
2023-03-18T06:43:03.219Z,2.58
2023-03-18T06:46:12.046Z,2.08
2023-03-18T06:49:18.280Z,2.10
2023-03-18T06:52:27.137Z,2.53
2023-03-18T06:55:34.606Z,2.60
2023-03-18T06:58:38.858Z,2.00
2023-03-18T07:01:44.327Z,2.20
2023-03-18T07:04:47.678Z,2.10
2023-03-18T07:07:50.084Z,2.40
2023-03-18T07:13:55.450Z,2.30
2023-03-18T07:17:03.021Z,2.58
2023-03-18T07:20:05.505Z,2.63
2023-03-18T07:23:10.555Z,2.40
2023-03-18T07:26:13.964Z,2.20
2023-03-18T07:29:16.342Z,2.40
2023-03-18T07:32:18.579Z,2.05
2023-03-18T07:35:20.549Z,2.40
2023-03-18T07:41:26.726Z,1.90
2023-03-18T07:44:28.719Z,2.10
2023-03-18T07:47:31.031Z,2.28
2023-03-18T07:50:33.555Z,2.13
2023-03-18T07:53:35.458Z,1.80
2023-03-18T07:56:39.794Z,1.77
2023-03-18T07:59:42.009Z,1.55
2023-03-18T08:02:44.223Z,1.42
2023-03-18T08:05:46.238Z,1.60
2023-03-18T08:08:48.083Z,1.50
2023-03-18T08:11:50.566Z,1.60
2023-03-18T08:14:55.596Z,1.33
2023-03-18T08:17:57.616Z,1.13
2023-03-18T08:20:59.720Z,1.17
2023-03-18T08:24:01.600Z,1.42
2023-03-18T08:27:04.306Z,1.30
2023-03-18T08:30:06.760Z,1.23
2023-03-18T08:33:08.997Z,1.10
2023-03-18T08:36:11.138Z,1.13
2023-03-18T08:39:14.592Z,1.30
2023-03-18T08:42:16.675Z,1.00
2023-03-18T08:45:21.299Z,1.38
2023-03-18T08:48:23.848Z,1.10
2023-03-18T08:51:26.692Z,0.80
2023-03-18T08:54:29.336Z,1.20
2023-03-18T08:57:31.559Z,0.95
2023-03-18T09:00:36.100Z,1.17
2023-03-18T09:03:38.312Z,1.10
2023-03-18T09:06:40.582Z,1.35
2023-03-18T09:09:44.208Z,0.98
2023-03-18T09:12:46.808Z,1.10
2023-03-18T09:15:49.052Z,1.10
2023-03-18T09:18:51.106Z,1.13
2023-03-18T09:21:53.656Z,1.10
2023-03-18T09:24:55.553Z,1.17
2023-03-18T09:27:57.493Z,1.20
2023-03-18T09:30:59.503Z,0.98
2023-03-18T09:34:01.514Z,0.90
2023-03-18T09:37:03.725Z,1.42
2023-03-18T09:40:08.684Z,1.10
2023-03-18T09:43:48.475Z,1.20
2023-03-18T09:47:05.196Z,0.95
2023-03-18T09:50:29.726Z,0.80
2023-03-18T09:53:43.976Z,1.10
2023-03-18T09:56:46.184Z,1.10
2023-03-18T10:00:12.455Z,0.82
2023-03-18T10:03:23.353Z,0.90
2023-03-18T10:06:26.829Z,0.75
2023-03-18T10:09:41.684Z,0.70
2023-03-18T10:13:10.342Z,1.08
2023-03-18T10:16:20.489Z,1.00
2023-03-18T10:19:22.565Z,0.85
2023-03-18T10:22:54.929Z,0.82
2023-03-18T10:26:04.848Z,0.60
2023-03-18T10:29:09.454Z,1.00
2023-03-18T10:32:49.559Z,0.98
2023-03-18T10:36:08.311Z,0.77
2023-03-18T10:39:17.869Z,1.00
2023-03-18T10:42:25.246Z,0.73
2023-03-18T10:45:34.564Z,1.08
2023-03-18T10:48:41.322Z,1.05
2023-03-18T10:51:59.638Z,0.80
2023-03-18T10:55:01.643Z,0.90
2023-03-18T10:58:18.507Z,0.70
2023-03-18T11:01:23.518Z,0.93
2023-03-18T11:04:28.741Z,0.80
2023-03-18T11:07:31.358Z,1.00
2023-03-18T11:10:53.892Z,0.82
2023-03-18T11:13:57.609Z,0.98
2023-03-18T11:17:00.816Z,1.05
2023-03-18T11:20:23.246Z,0.90
2023-03-18T11:23:36.888Z,0.95
2023-03-18T11:26:56.906Z,0.93
2023-03-18T11:30:02.951Z,0.93
2023-03-18T11:33:13.267Z,1.10
2023-03-18T11:36:22.507Z,0.80
2023-03-18T11:39:25.388Z,1.00
2023-03-18T11:42:27.317Z,0.95
2023-03-18T11:48:36.081Z,1.00
2023-03-18T12:03:42.961Z,1.05
2023-03-18T12:07:22.487Z,0.80
2023-03-18T12:10:38.801Z,0.80
2023-03-18T12:13:43.896Z,0.88
2023-03-18T12:17:17.847Z,1.08
2023-03-18T12:20:35.545Z,0.88
2023-03-18T12:23:53.957Z,0.80
2023-03-18T12:27:01.784Z,0.65
2023-03-18T12:30:28.014Z,0.60
2023-03-18T12:33:51.921Z,0.70
2023-03-18T12:37:10.511Z,0.82
2023-03-18T12:40:47.554Z,1.08
2023-03-18T12:43:55.427Z,0.85
2023-03-18T12:47:23.008Z,0.80
2023-03-18T12:50:36.659Z,0.80
2023-03-18T12:53:45.072Z,1.00
2023-03-18T12:56:50.803Z,1.02
2023-03-18T13:00:00.946Z,0.90
2023-03-18T13:03:33.391Z,0.80
2023-03-18T13:06:47.516Z,0.80
2023-03-18T13:10:24.559Z,0.85
2023-03-18T13:13:28.642Z,1.00
2023-03-18T13:16:32.596Z,1.10
2023-03-18T13:19:36.157Z,0.80
2023-03-18T13:22:44.418Z,1.20
2023-03-18T13:26:03.423Z,0.95
2023-03-18T13:29:45.047Z,0.80
2023-03-18T13:33:21.938Z,0.70
2023-03-18T13:37:01.532Z,0.90
2023-03-18T13:40:21.361Z,0.80
2023-03-18T13:43:25.568Z,0.90
2023-03-18T13:46:31.523Z,1.00
2023-03-18T13:49:34.147Z,0.60
2023-03-18T13:52:43.769Z,0.73
2023-03-18T13:55:57.790Z,0.80
2023-03-18T13:59:04.745Z,0.80
2023-03-18T14:02:34.308Z,0.93
2023-03-18T14:05:39.609Z,1.23
2023-03-18T14:08:44.331Z,0.70
2023-03-18T14:11:47.478Z,0.82
2023-03-18T14:14:52.927Z,0.95
2023-03-18T14:17:56.988Z,1.00
2023-03-18T14:21:02.067Z,0.82
2023-03-18T14:24:12.104Z,0.75
2023-03-18T14:27:19.216Z,0.90
2023-03-18T14:30:30.468Z,0.95
2023-03-18T14:33:34.124Z,0.90
2023-03-18T14:37:05.226Z,0.88
2023-03-18T14:40:17.482Z,0.98
2023-03-18T14:43:37.281Z,0.93
2023-03-18T14:46:45.378Z,1.20
2023-03-18T14:49:55.032Z,1.05
2023-03-18T14:53:09.987Z,1.00
2023-03-18T14:56:19.614Z,1.00
2023-03-18T14:59:25.697Z,1.15
2023-03-18T15:05:43.224Z,0.80
2023-03-18T15:09:07.898Z,0.95
2023-03-18T15:12:24.923Z,1.00
2023-03-18T15:15:34.512Z,0.90
2023-03-18T15:18:38.301Z,0.80
2023-03-18T15:21:40.501Z,1.00
2023-03-18T15:24:43.404Z,0.90
2023-03-18T15:27:49.066Z,1.00
2023-03-18T15:30:58.307Z,1.20
2023-03-18T15:34:14.994Z,1.00
2023-03-18T15:37:41.726Z,0.85
2023-03-18T15:40:52.498Z,1.15
2023-03-18T15:43:54.488Z,0.88
2023-03-18T15:50:11.520Z,1.30
2023-03-18T15:53:27.988Z,1.00
2023-03-18T15:56:34.561Z,0.82
2023-03-18T15:59:38.046Z,1.13
2023-03-18T16:02:40.417Z,1.10
2023-03-18T16:05:42.574Z,1.02
2023-03-18T16:11:55.370Z,1.00
2023-03-18T16:14:57.475Z,0.82
2023-03-18T16:21:04.100Z,1.20
2023-03-18T16:24:06.778Z,1.00
2023-03-18T16:27:26.534Z,1.00
2023-03-18T16:30:30.958Z,1.00
2023-03-18T16:33:34.407Z,1.00
2023-03-18T16:36:36.306Z,1.05
2023-03-18T16:39:38.399Z,1.23
2023-03-18T16:42:40.786Z,0.95
2023-03-18T16:45:45.970Z,1.30
2023-03-18T16:48:48.625Z,1.00
2023-03-18T16:51:51.234Z,1.30
2023-03-18T16:54:53.369Z,1.25
2023-03-18T17:01:06.177Z,1.73
2023-03-18T17:04:34.658Z,1.40
2023-03-18T17:07:39.021Z,1.98
2023-03-18T17:10:41.587Z,1.90
2023-03-18T17:13:43.430Z,1.52
2023-03-18T17:16:45.380Z,1.77
2023-03-18T17:19:47.327Z,1.70
2023-03-18T17:22:49.313Z,1.70
2023-03-18T17:26:00.265Z,2.95
2023-03-18T17:29:02.186Z,2.50
2023-03-18T17:32:04.192Z,2.60
2023-03-18T17:35:12.944Z,3.90
2023-03-18T17:38:15.728Z,3.33
2023-03-18T17:41:21.095Z,6.00
2023-03-18T17:44:30.298Z,4.85
2023-03-18T17:47:32.778Z,4.78
2023-03-18T17:53:55.916Z,3.65
2023-03-18T17:56:57.804Z,3.55
2023-03-18T18:03:02.400Z,3.97
2023-03-18T18:06:04.684Z,4.20
2023-03-18T18:12:16.427Z,3.63
2023-03-18T18:15:24.014Z,3.35
2023-03-18T18:18:27.989Z,2.53
2023-03-18T18:21:30.121Z,2.90
2023-03-18T18:24:32.341Z,2.10
2023-03-18T18:27:35.089Z,1.70
2023-03-18T18:30:37.257Z,2.00
2023-03-18T18:33:48.054Z,2.05
2023-03-18T18:36:50.535Z,2.70
2023-03-18T18:39:52.375Z,3.55
2023-03-18T18:42:54.203Z,4.97
2023-03-18T18:45:57.288Z,5.32
2023-03-18T18:48:59.260Z,7.25
2023-03-18T18:55:08.587Z,3.13
2023-03-18T18:58:18.644Z,2.22
2023-03-18T19:01:20.938Z,1.70
2023-03-18T19:04:23.323Z,1.90
2023-03-18T19:10:26.998Z,3.25
2023-03-18T19:13:30.299Z,2.10
2023-03-18T19:16:34.534Z,1.90
2023-03-18T19:19:36.358Z,2.95
2023-03-18T19:22:38.166Z,2.53
2023-03-18T19:25:40.033Z,2.78
2023-03-18T19:28:55.098Z,1.80
2023-03-18T19:32:00.296Z,1.95
2023-03-18T19:35:02.506Z,2.38
2023-03-18T19:38:04.349Z,2.30
2023-03-18T19:41:06.266Z,2.03
2023-03-18T19:44:22.937Z,1.73
2023-03-18T19:47:26.894Z,2.15
2023-03-18T19:50:28.704Z,1.60
2023-03-18T19:53:30.690Z,1.50
2023-03-18T19:56:32.867Z,1.50
2023-03-18T19:59:39.323Z,1.80
2023-03-18T20:02:48.799Z,1.60
2023-03-18T20:05:51.149Z,1.27
2023-03-18T20:08:53.037Z,1.30
2023-03-18T20:12:03.003Z,1.52
2023-03-18T20:15:21.372Z,1.90
2023-03-18T20:18:30.219Z,1.60
2023-03-18T20:21:32.403Z,1.55
2023-03-18T20:24:34.406Z,1.40
2023-03-18T20:27:43.180Z,1.48
2023-03-18T20:33:53.117Z,2.30
2023-03-18T20:36:55.145Z,2.50
2023-03-18T20:39:57.428Z,2.10
2023-03-18T20:42:59.758Z,1.90
2023-03-18T20:46:02.058Z,2.05
2023-03-18T20:49:04.264Z,2.20
2023-03-18T20:52:06.647Z,1.77
2023-03-18T20:55:35.317Z,2.35
2023-03-18T20:58:37.693Z,1.90
2023-03-18T21:04:41.907Z,1.90
2023-03-18T21:07:44.362Z,1.95
2023-03-18T21:10:46.224Z,2.08
2023-03-18T21:16:56.160Z,4.43
2023-03-18T21:20:11.174Z,4.05
2023-03-18T21:26:33.172Z,6.78
2023-03-18T21:29:41.037Z,4.32
2023-03-18T21:32:43.289Z,3.42
2023-03-18T21:35:45.190Z,3.00
2023-03-18T21:38:47.005Z,2.03
2023-03-18T21:41:48.830Z,2.40
2023-03-18T21:44:51.698Z,1.90
2023-03-18T21:47:53.759Z,7.07
2023-03-18T21:50:56.177Z,7.47
2023-03-18T21:53:58.395Z,2.88
2023-03-18T21:57:01.360Z,2.60
2023-03-18T22:00:04.388Z,2.45
2023-03-18T22:03:14.555Z,2.30
2023-03-18T22:06:17.304Z,2.85
2023-03-18T22:09:19.363Z,2.35
2023-03-18T22:12:32.009Z,2.17
2023-03-18T22:15:38.786Z,2.50
2023-03-18T22:18:44.308Z,2.30
2023-03-18T22:21:46.333Z,5.32
2023-03-18T22:24:48.937Z,3.95
2023-03-18T22:27:50.962Z,2.33
2023-03-18T22:30:56.446Z,2.20
2023-03-18T22:33:58.610Z,2.70
2023-03-18T22:37:00.617Z,2.50
2023-03-18T22:40:02.724Z,3.88
2023-03-18T22:43:13.951Z,5.50
2023-03-18T22:46:16.468Z,4.88
2023-03-18T22:49:18.674Z,4.13
2023-03-18T22:52:30.263Z,4.10
2023-03-18T22:55:38.635Z,5.13
2023-03-18T22:58:40.674Z,5.03
2023-03-18T23:01:42.751Z,6.82
2023-03-18T23:04:50.047Z,4.78
2023-03-18T23:07:53.043Z,5.35
2023-03-18T23:11:00.737Z,5.70
2023-03-18T23:14:04.394Z,5.85
2023-03-18T23:17:06.587Z,4.00
2023-03-18T23:20:09.261Z,3.80
2023-03-18T23:23:11.746Z,3.92
2023-03-18T23:29:15.885Z,4.35
2023-03-18T23:32:19.158Z,3.08
2023-03-18T23:35:21.331Z,3.10
2023-03-18T23:38:23.206Z,2.95
2023-03-18T23:41:25.264Z,3.53
2023-03-18T23:44:27.749Z,4.10
2023-03-18T23:47:29.788Z,3.33
2023-03-18T23:50:31.857Z,3.28
2023-03-18T23:53:33.780Z,3.55
2023-03-18T23:56:36.300Z,3.33
